sensor_id;sensor_type;location;lat;lon;timestamp;temperature;humidity
36710;DHT22;22694;51.040;3.684;2023-03-11T00:00:25;18.30;58.70
36710;DHT22;22694;51.040;3.684;2023-03-11T00:02:52;18.30;58.80
36710;DHT22;22694;51.040;3.684;2023-03-11T00:05:21;18.20;59.40
36710;DHT22;22694;51.040;3.684;2023-03-11T00:07:48;18.10;59.30
36710;DHT22;22694;51.040;3.684;2023-03-11T00:10:35;18.10;59.10
36710;DHT22;22694;51.040;3.684;2023-03-11T00:13:02;18.20;58.90
36710;DHT22;22694;51.040;3.684;2023-03-11T00:15:29;18.20;58.60
36710;DHT22;22694;51.040;3.684;2023-03-11T00:17:55;18.30;58.80
36710;DHT22;22694;51.040;3.684;2023-03-11T00:20:31;18.20;58.70
36710;DHT22;22694;51.040;3.684;2023-03-11T00:22:57;18.20;59.10
36710;DHT22;22694;51.040;3.684;2023-03-11T00:25:25;18.10;59.10
36710;DHT22;22694;51.040;3.684;2023-03-11T00:27:52;18.10;59.00
36710;DHT22;22694;51.040;3.684;2023-03-11T00:30:19;18.10;58.80
36710;DHT22;22694;51.040;3.684;2023-03-11T00:32:47;18.20;58.70
36710;DHT22;22694;51.040;3.684;2023-03-11T00:35:16;18.20;58.50
36710;DHT22;22694;51.040;3.684;2023-03-11T00:37:44;18.20;58.70
36710;DHT22;22694;51.040;3.684;2023-03-11T00:40:16;18.20;59.00
36710;DHT22;22694;51.040;3.684;2023-03-11T00:42:42;18.00;58.90
36710;DHT22;22694;51.040;3.684;2023-03-11T00:45:09;18.00;58.60
36710;DHT22;22694;51.040;3.684;2023-03-11T00:47:34;18.10;58.50
36710;DHT22;22694;51.040;3.684;2023-03-11T00:50:00;18.10;58.30
36710;DHT22;22694;51.040;3.684;2023-03-11T00:52:25;18.20;58.10
36710;DHT22;22694;51.040;3.684;2023-03-11T00:54:53;18.20;58.30
36710;DHT22;22694;51.040;3.684;2023-03-11T00:57:19;18.10;58.70
36710;DHT22;22694;51.040;3.684;2023-03-11T00:59:45;18.00;58.80
36710;DHT22;22694;51.040;3.684;2023-03-11T01:02:10;18.00;58.50
36710;DHT22;22694;51.040;3.684;2023-03-11T01:04:36;18.00;58.30
36710;DHT22;22694;51.040;3.684;2023-03-11T01:07:02;18.10;58.10
36710;DHT22;22694;51.040;3.684;2023-03-11T01:09:27;18.10;57.80
36710;DHT22;22694;51.040;3.684;2023-03-11T01:11:53;18.10;57.90
36710;DHT22;22694;51.040;3.684;2023-03-11T01:14:19;18.00;58.40
36710;DHT22;22694;51.040;3.684;2023-03-11T01:16:44;18.00;58.70
36710;DHT22;22694;51.040;3.684;2023-03-11T01:19:11;17.90;58.30
36710;DHT22;22694;51.040;3.684;2023-03-11T01:21:37;17.90;58.10
36710;DHT22;22694;51.040;3.684;2023-03-11T01:24:02;18.00;57.90
36710;DHT22;22694;51.040;3.684;2023-03-11T01:26:28;18.00;57.70
36710;DHT22;22694;51.040;3.684;2023-03-11T01:28:54;18.00;57.80
36710;DHT22;22694;51.040;3.684;2023-03-11T01:31:19;18.00;58.10
36710;DHT22;22694;51.040;3.684;2023-03-11T01:33:45;17.90;58.60
36710;DHT22;22694;51.040;3.684;2023-03-11T01:36:11;17.90;58.10
36710;DHT22;22694;51.040;3.684;2023-03-11T01:38:36;17.90;58.00
36710;DHT22;22694;51.040;3.684;2023-03-11T01:41:02;18.00;57.80
36710;DHT22;22694;51.040;3.684;2023-03-11T01:43:47;18.00;57.70
36710;DHT22;22694;51.040;3.684;2023-03-11T01:46:25;18.00;57.70
36710;DHT22;22694;51.040;3.684;2023-03-11T01:48:53;18.00;58.20
36710;DHT22;22694;51.040;3.684;2023-03-11T01:51:40;17.90;58.30
36710;DHT22;22694;51.040;3.684;2023-03-11T01:54:13;17.90;58.10
36710;DHT22;22694;51.040;3.684;2023-03-11T01:56:41;17.90;58.00
36710;DHT22;22694;51.040;3.684;2023-03-11T01:59:08;18.00;57.80
36710;DHT22;22694;51.040;3.684;2023-03-11T02:01:42;18.00;58.20
36710;DHT22;22694;51.040;3.684;2023-03-11T02:04:11;18.00;57.60
36710;DHT22;22694;51.040;3.684;2023-03-11T02:06:38;18.00;57.90
36710;DHT22;22694;51.040;3.684;2023-03-11T02:09:04;17.90;58.10
36710;DHT22;22694;51.040;3.684;2023-03-11T02:11:30;17.90;58.00
36710;DHT22;22694;51.040;3.684;2023-03-11T02:13:59;17.90;57.90
36710;DHT22;22694;51.040;3.684;2023-03-11T02:16:26;18.00;57.70
36710;DHT22;22694;51.040;3.684;2023-03-11T02:18:52;18.00;57.60
36710;DHT22;22694;51.040;3.684;2023-03-11T02:21:24;18.00;57.60
36710;DHT22;22694;51.040;3.684;2023-03-11T02:23:54;18.00;58.00
36710;DHT22;22694;51.040;3.684;2023-03-11T02:26:40;18.00;58.50
36710;DHT22;22694;51.040;3.684;2023-03-11T02:29:08;17.90;58.20
36710;DHT22;22694;51.040;3.684;2023-03-11T02:31:37;17.90;58.00
36710;DHT22;22694;51.040;3.684;2023-03-11T02:34:08;18.00;57.80
36710;DHT22;22694;51.040;3.684;2023-03-11T02:36:39;18.10;57.80
36710;DHT22;22694;51.040;3.684;2023-03-11T02:39:06;18.10;58.00
36710;DHT22;22694;51.040;3.684;2023-03-11T02:41:35;18.00;58.30
36710;DHT22;22694;51.040;3.684;2023-03-11T02:44:03;18.00;58.20
36710;DHT22;22694;51.040;3.684;2023-03-11T02:46:29;17.90;58.00
36710;DHT22;22694;51.040;3.684;2023-03-11T02:48:56;18.00;57.90
36710;DHT22;22694;51.040;3.684;2023-03-11T02:51:22;18.10;57.70
36710;DHT22;22694;51.040;3.684;2023-03-11T02:53:50;18.10;57.60
36710;DHT22;22694;51.040;3.684;2023-03-11T02:56:17;18.10;57.80
36710;DHT22;22694;51.040;3.684;2023-03-11T02:58:43;18.10;58.20
36710;DHT22;22694;51.040;3.684;2023-03-11T03:01:09;18.00;58.30
36710;DHT22;22694;51.040;3.684;2023-03-11T03:03:34;18.00;58.00
36710;DHT22;22694;51.040;3.684;2023-03-11T03:06:00;18.00;57.90
36710;DHT22;22694;51.040;3.684;2023-03-11T03:08:26;18.10;57.70
36710;DHT22;22694;51.040;3.684;2023-03-11T03:10:51;18.20;57.60
36710;DHT22;22694;51.040;3.684;2023-03-11T03:13:17;18.20;57.70
36710;DHT22;22694;51.040;3.684;2023-03-11T03:15:43;18.20;58.20
36710;DHT22;22694;51.040;3.684;2023-03-11T03:18:09;18.00;58.20
36710;DHT22;22694;51.040;3.684;2023-03-11T03:20:34;18.00;58.10
36710;DHT22;22694;51.040;3.684;2023-03-11T03:23:00;18.00;57.90
36710;DHT22;22694;51.040;3.684;2023-03-11T03:25:26;18.00;57.70
36710;DHT22;22694;51.040;3.684;2023-03-11T03:27:51;18.10;57.50
36710;DHT22;22694;51.040;3.684;2023-03-11T03:30:17;18.10;57.30
36710;DHT22;22694;51.040;3.684;2023-03-11T03:32:43;18.10;57.20
36710;DHT22;22694;51.040;3.684;2023-03-11T03:35:10;18.00;57.50
36710;DHT22;22694;51.040;3.684;2023-03-11T03:37:36;18.00;57.70
36710;DHT22;22694;51.040;3.684;2023-03-11T03:40:04;18.00;57.60
36710;DHT22;22694;51.040;3.684;2023-03-11T03:42:34;18.00;57.50
36710;DHT22;22694;51.040;3.684;2023-03-11T03:44:59;18.10;57.30
36710;DHT22;22694;51.040;3.684;2023-03-11T03:47:25;18.10;57.10
36710;DHT22;22694;51.040;3.684;2023-03-11T03:49:51;18.10;57.10
36710;DHT22;22694;51.040;3.684;2023-03-11T03:52:16;18.10;57.30
36710;DHT22;22694;51.040;3.684;2023-03-11T03:54:42;18.00;57.60
36710;DHT22;22694;51.040;3.684;2023-03-11T03:57:08;17.90;57.50
36710;DHT22;22694;51.040;3.684;2023-03-11T03:59:33;18.00;57.40
36710;DHT22;22694;51.040;3.684;2023-03-11T04:01:59;18.10;57.30
36710;DHT22;22694;51.040;3.684;2023-03-11T04:04:25;18.10;57.00
36710;DHT22;22694;51.040;3.684;2023-03-11T04:06:51;18.10;57.00
36710;DHT22;22694;51.040;3.684;2023-03-11T04:09:17;18.10;57.30
36710;DHT22;22694;51.040;3.684;2023-03-11T04:11:43;18.00;57.60
36710;DHT22;22694;51.040;3.684;2023-03-11T04:14:09;17.90;57.40
36710;DHT22;22694;51.040;3.684;2023-03-11T04:16:34;17.90;57.20
36710;DHT22;22694;51.040;3.684;2023-03-11T04:19:00;18.00;57.00
36710;DHT22;22694;51.040;3.684;2023-03-11T04:21:26;18.00;56.80
36710;DHT22;22694;51.040;3.684;2023-03-11T04:23:51;18.00;56.60
36710;DHT22;22694;51.040;3.684;2023-03-11T04:26:17;18.00;56.90
36710;DHT22;22694;51.040;3.684;2023-03-11T04:28:43;17.90;57.40
36710;DHT22;22694;51.040;3.684;2023-03-11T04:31:08;17.90;57.20
36710;DHT22;22694;51.040;3.684;2023-03-11T04:33:34;17.80;57.00
36710;DHT22;22694;51.040;3.684;2023-03-11T04:36:04;17.90;56.80
36710;DHT22;22694;51.040;3.684;2023-03-11T04:38:30;18.00;56.60
36710;DHT22;22694;51.040;3.684;2023-03-11T04:40:59;18.00;56.50
36710;DHT22;22694;51.040;3.684;2023-03-11T04:43:25;18.00;56.80
36710;DHT22;22694;51.040;3.684;2023-03-11T04:45:51;17.90;57.20
36710;DHT22;22694;51.040;3.684;2023-03-11T04:48:17;17.80;57.10
36710;DHT22;22694;51.040;3.684;2023-03-11T04:50:42;17.80;57.00
36710;DHT22;22694;51.040;3.684;2023-03-11T04:53:08;17.90;56.80
36710;DHT22;22694;51.040;3.684;2023-03-11T04:55:34;17.90;56.50
36710;DHT22;22694;51.040;3.684;2023-03-11T04:57:59;18.00;56.40
36710;DHT22;22694;51.040;3.684;2023-03-11T05:00:25;17.90;56.50
36710;DHT22;22694;51.040;3.684;2023-03-11T05:02:51;17.80;57.00
36710;DHT22;22694;51.040;3.684;2023-03-11T05:05:17;17.80;57.10
36710;DHT22;22694;51.040;3.684;2023-03-11T05:07:46;17.70;56.80
36710;DHT22;22694;51.040;3.684;2023-03-11T05:10:12;17.80;56.60
36710;DHT22;22694;51.040;3.684;2023-03-11T05:12:37;17.90;56.40
36710;DHT22;22694;51.040;3.684;2023-03-11T05:15:04;17.90;56.20
36710;DHT22;22694;51.040;3.684;2023-03-11T05:17:29;17.90;56.40
36710;DHT22;22694;51.040;3.684;2023-03-11T05:19:55;17.90;56.90
36710;DHT22;22694;51.040;3.684;2023-03-11T05:22:22;17.70;56.90
36710;DHT22;22694;51.040;3.684;2023-03-11T05:24:48;17.70;56.60
36710;DHT22;22694;51.040;3.684;2023-03-11T05:27:14;17.80;56.50
36710;DHT22;22694;51.040;3.684;2023-03-11T05:29:43;17.80;56.10
36710;DHT22;22694;51.040;3.684;2023-03-11T05:32:10;17.90;56.10
36710;DHT22;22694;51.040;3.684;2023-03-11T05:34:36;17.90;56.20
36710;DHT22;22694;51.040;3.684;2023-03-11T05:37:02;17.80;56.70
36710;DHT22;22694;51.040;3.684;2023-03-11T05:39:28;17.70;56.90
36710;DHT22;22694;51.040;3.684;2023-03-11T05:41:54;17.70;56.50
36710;DHT22;22694;51.040;3.684;2023-03-11T05:44:21;17.70;56.30
36710;DHT22;22694;51.040;3.684;2023-03-11T05:46:47;17.80;56.10
36710;DHT22;22694;51.040;3.684;2023-03-11T05:49:12;17.80;55.80
36710;DHT22;22694;51.040;3.684;2023-03-11T05:51:38;17.80;55.90
36710;DHT22;22694;51.040;3.684;2023-03-11T05:54:05;17.80;56.50
36710;DHT22;22694;51.040;3.684;2023-03-11T05:56:36;17.70;56.70
36710;DHT22;22694;51.040;3.684;2023-03-11T05:59:01;17.60;56.20
36710;DHT22;22694;51.040;3.684;2023-03-11T06:01:27;17.70;56.10
36710;DHT22;22694;51.040;3.684;2023-03-11T06:03:53;17.70;55.80
36710;DHT22;22694;51.040;3.684;2023-03-11T06:06:18;17.80;55.70
36710;DHT22;22694;51.040;3.684;2023-03-11T06:08:44;17.70;56.10
36710;DHT22;22694;51.040;3.684;2023-03-11T06:11:14;17.70;56.60
36710;DHT22;22694;51.040;3.684;2023-03-11T06:13:40;17.60;56.50
36710;DHT22;22694;51.040;3.684;2023-03-11T06:16:06;17.60;56.30
36710;DHT22;22694;51.040;3.684;2023-03-11T06:18:32;17.70;56.20
36710;DHT22;22694;51.040;3.684;2023-03-11T06:20:59;17.70;55.80
36710;DHT22;22694;51.040;3.684;2023-03-11T06:23:27;17.70;55.70
36710;DHT22;22694;51.040;3.684;2023-03-11T06:25:57;17.70;55.90
36710;DHT22;22694;51.040;3.684;2023-03-11T06:28:23;17.60;56.40
36710;DHT22;22694;51.040;3.684;2023-03-11T06:30:49;17.60;56.30
36710;DHT22;22694;51.040;3.684;2023-03-11T06:33:14;17.60;56.10
36710;DHT22;22694;51.040;3.684;2023-03-11T06:35:40;17.60;55.80
36710;DHT22;22694;51.040;3.684;2023-03-11T06:38:06;17.70;55.60
36710;DHT22;22694;51.040;3.684;2023-03-11T06:40:32;17.70;55.50
36710;DHT22;22694;51.040;3.684;2023-03-11T06:42:58;17.70;56.40
36710;DHT22;22694;51.040;3.684;2023-03-11T06:45:24;17.60;56.30
36710;DHT22;22694;51.040;3.684;2023-03-11T06:47:49;17.50;56.10
36710;DHT22;22694;51.040;3.684;2023-03-11T06:50:15;17.50;55.90
36710;DHT22;22694;51.040;3.684;2023-03-11T06:52:41;17.60;55.70
36710;DHT22;22694;51.040;3.684;2023-03-11T06:55:07;17.70;55.40
36710;DHT22;22694;51.040;3.684;2023-03-11T06:57:33;17.70;55.40
36710;DHT22;22694;51.040;3.684;2023-03-11T06:59:59;17.70;55.70
36710;DHT22;22694;51.040;3.684;2023-03-11T07:02:25;17.60;56.00
36710;DHT22;22694;51.040;3.684;2023-03-11T07:04:51;17.50;55.80
36710;DHT22;22694;51.040;3.684;2023-03-11T07:07:16;17.50;55.60
36710;DHT22;22694;51.040;3.684;2023-03-11T07:09:42;17.60;55.50
36710;DHT22;22694;51.040;3.684;2023-03-11T07:12:08;17.70;55.20
36710;DHT22;22694;51.040;3.684;2023-03-11T07:14:34;17.70;55.50
36710;DHT22;22694;51.040;3.684;2023-03-11T07:17:00;17.70;55.90
36710;DHT22;22694;51.040;3.684;2023-03-11T07:19:26;17.60;56.10
36710;DHT22;22694;51.040;3.684;2023-03-11T07:21:52;17.60;56.00
36710;DHT22;22694;51.040;3.684;2023-03-11T07:24:17;17.70;56.50
36710;DHT22;22694;51.040;3.684;2023-03-11T07:26:43;17.80;56.70
36710;DHT22;22694;51.040;3.684;2023-03-11T07:29:09;17.80;56.40
36710;DHT22;22694;51.040;3.684;2023-03-11T07:31:37;17.80;56.30
36710;DHT22;22694;51.040;3.684;2023-03-11T07:34:05;17.80;56.50
36710;DHT22;22694;51.040;3.684;2023-03-11T07:36:35;17.70;56.40
36710;DHT22;22694;51.040;3.684;2023-03-11T07:39:03;17.70;55.90
36710;DHT22;22694;51.040;3.684;2023-03-11T07:41:34;17.70;55.70
36710;DHT22;22694;51.040;3.684;2023-03-11T07:44:00;17.80;55.50
36710;DHT22;22694;51.040;3.684;2023-03-11T07:46:27;17.80;55.40
36710;DHT22;22694;51.040;3.684;2023-03-11T07:48:54;17.80;55.50
36710;DHT22;22694;51.040;3.684;2023-03-11T07:51:22;17.70;55.80
36710;DHT22;22694;51.040;3.684;2023-03-11T07:53:51;17.70;55.70
36710;DHT22;22694;51.040;3.684;2023-03-11T07:56:18;17.70;55.50
36710;DHT22;22694;51.040;3.684;2023-03-11T07:58:44;17.70;55.40
36710;DHT22;22694;51.040;3.684;2023-03-11T08:01:15;17.80;55.20
36710;DHT22;22694;51.040;3.684;2023-03-11T08:03:45;17.90;55.20
36710;DHT22;22694;51.040;3.684;2023-03-11T08:06:12;17.90;55.20
36710;DHT22;22694;51.040;3.684;2023-03-11T08:08:38;17.80;55.60
36710;DHT22;22694;51.040;3.684;2023-03-11T08:11:04;17.70;55.50
36710;DHT22;22694;51.040;3.684;2023-03-11T08:13:31;17.70;55.40
36710;DHT22;22694;51.040;3.684;2023-03-11T08:15:57;17.80;55.30
36710;DHT22;22694;51.040;3.684;2023-03-11T08:18:22;17.90;55.20
36710;DHT22;22694;51.040;3.684;2023-03-11T08:20:48;17.90;55.10
36710;DHT22;22694;51.040;3.684;2023-03-11T08:23:14;17.90;55.20
36710;DHT22;22694;51.040;3.684;2023-03-11T08:25:40;17.90;55.50
36710;DHT22;22694;51.040;3.684;2023-03-11T08:28:06;17.90;56.50
36710;DHT22;22694;51.040;3.684;2023-03-11T08:30:32;17.90;56.40
36710;DHT22;22694;51.040;3.684;2023-03-11T08:32:58;17.90;56.10
36710;DHT22;22694;51.040;3.684;2023-03-11T08:35:24;18.10;55.80
36710;DHT22;22694;51.040;3.684;2023-03-11T08:37:50;18.10;55.50
36710;DHT22;22694;51.040;3.684;2023-03-11T08:40:16;18.00;55.40
36710;DHT22;22694;51.040;3.684;2023-03-11T08:42:42;18.00;55.80
36710;DHT22;22694;51.040;3.684;2023-03-11T08:45:08;17.90;55.80
36710;DHT22;22694;51.040;3.684;2023-03-11T08:47:35;17.90;55.60
36710;DHT22;22694;51.040;3.684;2023-03-11T08:50:07;18.00;55.60
36710;DHT22;22694;51.040;3.684;2023-03-11T08:52:32;18.10;55.50
36710;DHT22;22694;51.040;3.684;2023-03-11T08:54:58;18.20;55.50
36710;DHT22;22694;51.040;3.684;2023-03-11T08:57:24;18.20;55.60
36710;DHT22;22694;51.040;3.684;2023-03-11T08:59:49;18.10;56.30
36710;DHT22;22694;51.040;3.684;2023-03-11T09:02:15;18.10;56.30
36710;DHT22;22694;51.040;3.684;2023-03-11T09:04:41;18.00;56.20
36710;DHT22;22694;51.040;3.684;2023-03-11T09:07:06;17.90;56.40
36710;DHT22;22694;51.040;3.684;2023-03-11T09:09:32;17.80;57.40
36710;DHT22;22694;51.040;3.684;2023-03-11T09:11:57;17.60;57.30
36710;DHT22;22694;51.040;3.684;2023-03-11T09:14:23;17.40;57.40
36710;DHT22;22694;51.040;3.684;2023-03-11T09:16:49;17.30;57.40
36710;DHT22;22694;51.040;3.684;2023-03-11T09:19:14;17.20;57.60
36710;DHT22;22694;51.040;3.684;2023-03-11T09:21:40;17.00;57.80
36710;DHT22;22694;51.040;3.684;2023-03-11T09:24:06;16.90;58.00
36710;DHT22;22694;51.040;3.684;2023-03-11T09:26:32;16.70;58.30
36710;DHT22;22694;51.040;3.684;2023-03-11T09:28:57;16.60;58.50
36710;DHT22;22694;51.040;3.684;2023-03-11T09:31:23;16.60;58.80
36710;DHT22;22694;51.040;3.684;2023-03-11T09:33:49;16.50;59.00
36710;DHT22;22694;51.040;3.684;2023-03-11T09:36:19;16.40;59.20
36710;DHT22;22694;51.040;3.684;2023-03-11T09:38:45;16.30;59.30
36710;DHT22;22694;51.040;3.684;2023-03-11T09:51:33;15.90;60.30
36710;DHT22;22694;51.040;3.684;2023-03-11T09:54:08;15.90;60.60
36710;DHT22;22694;51.040;3.684;2023-03-11T09:56:35;15.80;60.70
36710;DHT22;22694;51.040;3.684;2023-03-11T09:59:07;15.70;60.80
36710;DHT22;22694;51.040;3.684;2023-03-11T10:01:41;15.70;63.20
36710;DHT22;22694;51.040;3.684;2023-03-11T10:04:33;16.10;74.30
36710;DHT22;22694;51.040;3.684;2023-03-11T10:07:05;16.30;72.30
36710;DHT22;22694;51.040;3.684;2023-03-11T10:09:55;16.30;67.30
36710;DHT22;22694;51.040;3.684;2023-03-11T10:18:06;15.90;63.60
36710;DHT22;22694;51.040;3.684;2023-03-11T10:21:23;16.00;69.90
36710;DHT22;22694;51.040;3.684;2023-03-11T10:27:21;15.80;63.20
36710;DHT22;22694;51.040;3.684;2023-03-11T10:32:23;15.60;63.00
36710;DHT22;22694;51.040;3.684;2023-03-11T10:35:03;15.60;63.00
36710;DHT22;22694;51.040;3.684;2023-03-11T10:37:33;15.60;63.00
36710;DHT22;22694;51.040;3.684;2023-03-11T10:42:48;15.80;73.10
36710;DHT22;22694;51.040;3.684;2023-03-11T10:45:15;15.80;66.90
36710;DHT22;22694;51.040;3.684;2023-03-11T10:47:41;15.80;63.80
36710;DHT22;22694;51.040;3.684;2023-03-11T10:50:14;15.70;63.80
36710;DHT22;22694;51.040;3.684;2023-03-11T10:52:45;15.60;63.90
36710;DHT22;22694;51.040;3.684;2023-03-11T10:55:28;15.50;63.80
36710;DHT22;22694;51.040;3.684;2023-03-11T10:58:09;15.80;80.30
36710;DHT22;22694;51.040;3.684;2023-03-11T11:00:36;16.30;80.80
36710;DHT22;22694;51.040;3.684;2023-03-11T11:03:02;16.60;78.50
36710;DHT22;22694;51.040;3.684;2023-03-11T11:05:31;16.90;76.60
36710;DHT22;22694;51.040;3.684;2023-03-11T11:08:07;17.00;75.10
36710;DHT22;22694;51.040;3.684;2023-03-11T11:10:36;17.00;72.90
36710;DHT22;22694;51.040;3.684;2023-03-11T11:15:40;17.00;75.10
36710;DHT22;22694;51.040;3.684;2023-03-11T11:18:17;17.30;74.40
36710;DHT22;22694;51.040;3.684;2023-03-11T11:26:21;17.60;70.10
36710;DHT22;22694;51.040;3.684;2023-03-11T11:31:42;17.10;68.30
36710;DHT22;22694;51.040;3.684;2023-03-11T11:34:30;16.90;67.60
36710;DHT22;22694;51.040;3.684;2023-03-11T11:36:59;16.80;65.00
36710;DHT22;22694;51.040;3.684;2023-03-11T11:39:28;16.60;64.40
36710;DHT22;22694;51.040;3.684;2023-03-11T11:41:55;16.50;64.40
36710;DHT22;22694;51.040;3.684;2023-03-11T11:44:27;16.50;64.90
36710;DHT22;22694;51.040;3.684;2023-03-11T11:46:58;16.80;76.60
36710;DHT22;22694;51.040;3.684;2023-03-11T11:49:28;16.90;72.70
36710;DHT22;22694;51.040;3.684;2023-03-11T11:52:15;16.70;68.80
36710;DHT22;22694;51.040;3.684;2023-03-11T11:57:30;16.40;65.40
36710;DHT22;22694;51.040;3.684;2023-03-11T11:59:56;16.30;65.50
36710;DHT22;22694;51.040;3.684;2023-03-11T12:08:08;16.10;65.60
36710;DHT22;22694;51.040;3.684;2023-03-11T12:10:56;16.00;65.60
36710;DHT22;22694;51.040;3.684;2023-03-11T12:18:45;16.60;72.00
36710;DHT22;22694;51.040;3.684;2023-03-11T12:26:49;16.30;67.50
36710;DHT22;22694;51.040;3.684;2023-03-11T12:29:26;16.20;66.70
36710;DHT22;22694;51.040;3.684;2023-03-11T12:31:54;16.10;66.70
36710;DHT22;22694;51.040;3.684;2023-03-11T12:34:21;16.10;66.60
36710;DHT22;22694;51.040;3.684;2023-03-11T12:36:50;16.00;66.50
36710;DHT22;22694;51.040;3.684;2023-03-11T12:39:25;16.00;66.50
36710;DHT22;22694;51.040;3.684;2023-03-11T12:42:18;16.00;66.40
36710;DHT22;22694;51.040;3.684;2023-03-11T12:44:45;16.00;66.40
36710;DHT22;22694;51.040;3.684;2023-03-11T12:47:20;15.90;66.30
36710;DHT22;22694;51.040;3.684;2023-03-11T12:49:54;15.90;66.30
36710;DHT22;22694;51.040;3.684;2023-03-11T12:52:26;15.90;66.30
36710;DHT22;22694;51.040;3.684;2023-03-11T13:00:26;15.80;66.30
36710;DHT22;22694;51.040;3.684;2023-03-11T13:14:09;15.70;66.30
36710;DHT22;22694;51.040;3.684;2023-03-11T13:16:37;15.70;66.30
36710;DHT22;22694;51.040;3.684;2023-03-11T13:21:51;15.70;66.30
36710;DHT22;22694;51.040;3.684;2023-03-11T13:37:53;15.60;66.30
36710;DHT22;22694;51.040;3.684;2023-03-11T13:40:36;15.60;66.40
36710;DHT22;22694;51.040;3.684;2023-03-11T13:43:04;15.60;66.40
36710;DHT22;22694;51.040;3.684;2023-03-11T13:45:35;15.60;66.70
36710;DHT22;22694;51.040;3.684;2023-03-11T13:48:28;15.60;66.50
36710;DHT22;22694;51.040;3.684;2023-03-11T13:53:58;15.60;66.40
36710;DHT22;22694;51.040;3.684;2023-03-11T13:56:38;15.60;66.50
36710;DHT22;22694;51.040;3.684;2023-03-11T13:59:29;15.60;66.50
36710;DHT22;22694;51.040;3.684;2023-03-11T14:04:35;15.60;66.50
36710;DHT22;22694;51.040;3.684;2023-03-11T14:07:26;15.60;66.80
36710;DHT22;22694;51.040;3.684;2023-03-11T14:12:37;15.60;66.50
36710;DHT22;22694;51.040;3.684;2023-03-11T14:15:13;15.60;66.50
36710;DHT22;22694;51.040;3.684;2023-03-11T14:17:40;15.60;66.50
36710;DHT22;22694;51.040;3.684;2023-03-11T14:20:18;15.60;66.50
36710;DHT22;22694;51.040;3.684;2023-03-11T14:22:49;15.60;66.40
36710;DHT22;22694;51.040;3.684;2023-03-11T14:27:55;15.60;66.40
36710;DHT22;22694;51.040;3.684;2023-03-11T14:30:32;15.60;66.40
36710;DHT22;22694;51.040;3.684;2023-03-11T14:33:01;15.60;66.50
36710;DHT22;22694;51.040;3.684;2023-03-11T14:35:27;15.50;66.50
36710;DHT22;22694;51.040;3.684;2023-03-11T14:37:54;15.50;66.50
36710;DHT22;22694;51.040;3.684;2023-03-11T14:40:31;15.50;66.60
36710;DHT22;22694;51.040;3.684;2023-03-11T14:43:03;15.50;66.60
36710;DHT22;22694;51.040;3.684;2023-03-11T14:45:40;15.50;66.60
36710;DHT22;22694;51.040;3.684;2023-03-11T14:48:24;15.50;66.60
36710;DHT22;22694;51.040;3.684;2023-03-11T14:50:51;15.50;66.60
36710;DHT22;22694;51.040;3.684;2023-03-11T14:53:25;15.50;66.70
36710;DHT22;22694;51.040;3.684;2023-03-11T14:55:58;15.50;66.70
36710;DHT22;22694;51.040;3.684;2023-03-11T15:03:36;15.40;66.50
36710;DHT22;22694;51.040;3.684;2023-03-11T15:06:08;15.40;66.60
36710;DHT22;22694;51.040;3.684;2023-03-11T15:08:44;15.40;66.70
36710;DHT22;22694;51.040;3.684;2023-03-11T15:13:38;15.40;66.70
36710;DHT22;22694;51.040;3.684;2023-03-11T15:16:07;15.30;66.70
36710;DHT22;22694;51.040;3.684;2023-03-11T15:18:45;15.40;66.80
36710;DHT22;22694;51.040;3.684;2023-03-11T15:21:14;15.30;66.70
36710;DHT22;22694;51.040;3.684;2023-03-11T15:23:51;15.30;66.70
36710;DHT22;22694;51.040;3.684;2023-03-11T15:26:24;15.30;66.80
36710;DHT22;22694;51.040;3.684;2023-03-11T15:28:56;15.30;66.80
36710;DHT22;22694;51.040;3.684;2023-03-11T15:33:48;15.20;66.80
36710;DHT22;22694;51.040;3.684;2023-03-11T15:36:36;15.20;66.80
36710;DHT22;22694;51.040;3.684;2023-03-11T15:39:17;15.20;66.90
36710;DHT22;22694;51.040;3.684;2023-03-11T15:41:45;15.10;66.80
36710;DHT22;22694;51.040;3.684;2023-03-11T15:46:50;15.10;66.90
36710;DHT22;22694;51.040;3.684;2023-03-11T15:49:16;15.10;67.10
36710;DHT22;22694;51.040;3.684;2023-03-11T15:51:41;15.00;67.00
36710;DHT22;22694;51.040;3.684;2023-03-11T15:54:07;15.00;67.20
36710;DHT22;22694;51.040;3.684;2023-03-11T15:56:33;15.10;68.40
36710;DHT22;22694;51.040;3.684;2023-03-11T15:58:59;15.20;69.40
36710;DHT22;22694;51.040;3.684;2023-03-11T16:01:25;15.30;70.00
36710;DHT22;22694;51.040;3.684;2023-03-11T16:03:54;15.40;72.30
36710;DHT22;22694;51.040;3.684;2023-03-11T16:06:20;15.40;69.70
36710;DHT22;22694;51.040;3.684;2023-03-11T16:08:49;15.30;67.60
36710;DHT22;22694;51.040;3.684;2023-03-11T16:11:15;15.20;66.60
36710;DHT22;22694;51.040;3.684;2023-03-11T16:13:41;15.20;67.00
36710;DHT22;22694;51.040;3.684;2023-03-11T16:16:14;15.10;67.00
36710;DHT22;22694;51.040;3.684;2023-03-11T16:18:40;15.00;67.10
36710;DHT22;22694;51.040;3.684;2023-03-11T16:21:11;14.90;67.20
36710;DHT22;22694;51.040;3.684;2023-03-11T16:23:38;14.90;67.40
36710;DHT22;22694;51.040;3.684;2023-03-11T16:26:04;14.90;67.40
36710;DHT22;22694;51.040;3.684;2023-03-11T16:28:30;14.80;67.40
36710;DHT22;22694;51.040;3.684;2023-03-11T16:30:56;14.80;67.60
36710;DHT22;22694;51.040;3.684;2023-03-11T16:33:21;14.80;67.60
36710;DHT22;22694;51.040;3.684;2023-03-11T16:35:47;14.70;67.60
36710;DHT22;22694;51.040;3.684;2023-03-11T16:38:13;14.70;67.70
36710;DHT22;22694;51.040;3.684;2023-03-11T16:40:41;14.70;67.80
36710;DHT22;22694;51.040;3.684;2023-03-11T16:43:09;14.70;70.60
36710;DHT22;22694;51.040;3.684;2023-03-11T16:45:35;15.00;79.50
36710;DHT22;22694;51.040;3.684;2023-03-11T16:48:02;15.30;80.80
36710;DHT22;22694;51.040;3.684;2023-03-11T16:50:28;15.60;78.70
36710;DHT22;22694;51.040;3.684;2023-03-11T16:52:54;15.50;74.90
36710;DHT22;22694;51.040;3.684;2023-03-11T16:55:21;15.40;72.30
36710;DHT22;22694;51.040;3.684;2023-03-11T16:57:46;15.30;69.10
36710;DHT22;22694;51.040;3.684;2023-03-11T17:00:13;15.20;67.30
36710;DHT22;22694;51.040;3.684;2023-03-11T17:02:39;15.10;67.10
36710;DHT22;22694;51.040;3.684;2023-03-11T17:05:06;15.00;67.20
36710;DHT22;22694;51.040;3.684;2023-03-11T17:07:33;14.90;67.10
36710;DHT22;22694;51.040;3.684;2023-03-11T17:09:59;14.90;70.50
36710;DHT22;22694;51.040;3.684;2023-03-11T17:12:25;15.10;71.80
36710;DHT22;22694;51.040;3.684;2023-03-11T17:14:52;15.20;72.80
36710;DHT22;22694;51.040;3.684;2023-03-11T17:17:18;15.10;69.90
36710;DHT22;22694;51.040;3.684;2023-03-11T17:19:44;15.00;67.40
36710;DHT22;22694;51.040;3.684;2023-03-11T17:22:10;14.90;67.00
36710;DHT22;22694;51.040;3.684;2023-03-11T17:24:36;14.90;66.90
36710;DHT22;22694;51.040;3.684;2023-03-11T17:27:02;14.80;67.00
36710;DHT22;22694;51.040;3.684;2023-03-11T17:29:28;14.60;67.60